sensor_id;sensor_type;location;lat;lon;timestamp;temperature;humidity
22319;DHT22;11327;52.334;9.506;2023-06-14T00:02:23;17.60;99.90
22319;DHT22;11327;52.334;9.506;2023-06-14T00:05:44;17.60;99.90
22319;DHT22;11327;52.334;9.506;2023-06-14T00:09:06;17.60;99.90
22319;DHT22;11327;52.334;9.506;2023-06-14T00:12:28;17.50;99.90
22319;DHT22;11327;52.334;9.506;2023-06-14T00:15:49;17.40;99.90
22319;DHT22;11327;52.334;9.506;2023-06-14T00:19:10;17.30;99.90
22319;DHT22;11327;52.334;9.506;2023-06-14T00:22:31;17.30;99.90
22319;DHT22;11327;52.334;9.506;2023-06-14T00:25:53;17.20;99.90
22319;DHT22;11327;52.334;9.506;2023-06-14T00:29:13;17.00;99.90
22319;DHT22;11327;52.334;9.506;2023-06-14T00:32:34;17.00;99.90
22319;DHT22;11327;52.334;9.506;2023-06-14T00:35:55;17.00;99.90
22319;DHT22;11327;52.334;9.506;2023-06-14T00:39:16;16.90;99.90
22319;DHT22;11327;52.334;9.506;2023-06-14T00:42:36;16.80;99.90
22319;DHT22;11327;52.334;9.506;2023-06-14T00:45:57;16.80;99.90
22319;DHT22;11327;52.334;9.506;2023-06-14T00:49:19;16.70;99.90
22319;DHT22;11327;52.334;9.506;2023-06-14T00:52:40;16.60;99.90
22319;DHT22;11327;52.334;9.506;2023-06-14T00:56:02;16.50;99.90
22319;DHT22;11327;52.334;9.506;2023-06-14T00:59:24;16.50;99.90
22319;DHT22;11327;52.334;9.506;2023-06-14T01:02:45;16.40;99.90
22319;DHT22;11327;52.334;9.506;2023-06-14T01:10:17;16.30;99.90
22319;DHT22;11327;52.334;9.506;2023-06-14T01:13:38;16.20;99.90
22319;DHT22;11327;52.334;9.506;2023-06-14T01:17:01;16.10;99.90
22319;DHT22;11327;52.334;9.506;2023-06-14T01:20:27;16.10;99.90
22319;DHT22;11327;52.334;9.506;2023-06-14T01:23:48;16.00;99.90
22319;DHT22;11327;52.334;9.506;2023-06-14T01:27:11;16.10;99.90
22319;DHT22;11327;52.334;9.506;2023-06-14T01:30:33;15.80;99.90
22319;DHT22;11327;52.334;9.506;2023-06-14T01:33:55;15.80;99.90
22319;DHT22;11327;52.334;9.506;2023-06-14T01:37:16;15.70;99.90
22319;DHT22;11327;52.334;9.506;2023-06-14T01:40:39;15.70;99.90
22319;DHT22;11327;52.334;9.506;2023-06-14T01:44:01;15.60;99.90
22319;DHT22;11327;52.334;9.506;2023-06-14T01:47:22;15.80;99.90
22319;DHT22;11327;52.334;9.506;2023-06-14T01:50:43;15.70;99.90
22319;DHT22;11327;52.334;9.506;2023-06-14T01:54:03;15.60;99.90
22319;DHT22;11327;52.334;9.506;2023-06-14T01:57:25;15.60;99.90
22319;DHT22;11327;52.334;9.506;2023-06-14T02:00:47;15.60;99.90
22319;DHT22;11327;52.334;9.506;2023-06-14T02:04:08;15.50;99.90
22319;DHT22;11327;52.334;9.506;2023-06-14T02:07:28;15.50;99.90
22319;DHT22;11327;52.334;9.506;2023-06-14T02:10:49;15.50;99.90
22319;DHT22;11327;52.334;9.506;2023-06-14T02:14:10;15.50;99.90
22319;DHT22;11327;52.334;9.506;2023-06-14T02:17:32;15.40;99.90
22319;DHT22;11327;52.334;9.506;2023-06-14T02:20:53;15.30;99.90
22319;DHT22;11327;52.334;9.506;2023-06-14T02:24:14;15.20;99.90
22319;DHT22;11327;52.334;9.506;2023-06-14T02:27:35;15.20;99.90
22319;DHT22;11327;52.334;9.506;2023-06-14T02:30:56;15.10;99.90
22319;DHT22;11327;52.334;9.506;2023-06-14T02:34:16;14.90;99.90
22319;DHT22;11327;52.334;9.506;2023-06-14T02:37:38;14.90;99.90
22319;DHT22;11327;52.334;9.506;2023-06-14T02:40:59;14.80;99.90
22319;DHT22;11327;52.334;9.506;2023-06-14T02:44:25;14.70;99.90
22319;DHT22;11327;52.334;9.506;2023-06-14T02:47:49;14.60;99.90
22319;DHT22;11327;52.334;9.506;2023-06-14T02:51:10;14.50;99.90
22319;DHT22;11327;52.334;9.506;2023-06-14T02:54:31;14.60;99.90
22319;DHT22;11327;52.334;9.506;2023-06-14T02:57:52;14.50;99.90
22319;DHT22;11327;52.334;9.506;2023-06-14T03:01:14;14.50;99.90
22319;DHT22;11327;52.334;9.506;2023-06-14T03:04:35;14.50;99.90
22319;DHT22;11327;52.334;9.506;2023-06-14T03:07:57;14.30;99.90
22319;DHT22;11327;52.334;9.506;2023-06-14T03:11:18;14.40;99.90
22319;DHT22;11327;52.334;9.506;2023-06-14T03:14:40;14.30;99.90
22319;DHT22;11327;52.334;9.506;2023-06-14T03:18:02;14.30;99.90
22319;DHT22;11327;52.334;9.506;2023-06-14T03:21:24;14.20;99.90
22319;DHT22;11327;52.334;9.506;2023-06-14T03:24:46;14.30;99.90
22319;DHT22;11327;52.334;9.506;2023-06-14T03:28:07;14.40;99.90
22319;DHT22;11327;52.334;9.506;2023-06-14T03:31:29;14.20;99.90
22319;DHT22;11327;52.334;9.506;2023-06-14T03:34:51;14.20;99.90
22319;DHT22;11327;52.334;9.506;2023-06-14T03:38:13;14.20;99.90
22319;DHT22;11327;52.334;9.506;2023-06-14T03:41:33;14.10;99.90
22319;DHT22;11327;52.334;9.506;2023-06-14T03:44:54;14.00;99.90
22319;DHT22;11327;52.334;9.506;2023-06-14T03:48:15;13.90;99.90
22319;DHT22;11327;52.334;9.506;2023-06-14T03:51:36;13.90;99.90
22319;DHT22;11327;52.334;9.506;2023-06-14T03:54:56;13.90;99.90
22319;DHT22;11327;52.334;9.506;2023-06-14T03:58:18;14.00;99.90
22319;DHT22;11327;52.334;9.506;2023-06-14T04:01:39;13.90;99.90
22319;DHT22;11327;52.334;9.506;2023-06-14T04:05:02;13.90;99.90
22319;DHT22;11327;52.334;9.506;2023-06-14T04:08:23;13.90;99.90
22319;DHT22;11327;52.334;9.506;2023-06-14T04:11:45;13.90;99.90
22319;DHT22;11327;52.334;9.506;2023-06-14T04:15:06;13.90;99.90
22319;DHT22;11327;52.334;9.506;2023-06-14T04:18:28;14.00;99.90
22319;DHT22;11327;52.334;9.506;2023-06-14T04:21:49;14.10;99.90
22319;DHT22;11327;52.334;9.506;2023-06-14T04:25:09;14.20;99.90
22319;DHT22;11327;52.334;9.506;2023-06-14T04:28:30;14.20;99.90
22319;DHT22;11327;52.334;9.506;2023-06-14T04:31:58;14.30;99.90
22319;DHT22;11327;52.334;9.506;2023-06-14T04:35:17;14.30;99.90
22319;DHT22;11327;52.334;9.506;2023-06-14T04:38:39;14.40;99.90
22319;DHT22;11327;52.334;9.506;2023-06-14T04:42:00;14.50;99.90
22319;DHT22;11327;52.334;9.506;2023-06-14T04:45:21;14.60;99.90
22319;DHT22;11327;52.334;9.506;2023-06-14T04:48:42;14.60;99.90
22319;DHT22;11327;52.334;9.506;2023-06-14T04:52:03;14.80;99.90
22319;DHT22;11327;52.334;9.506;2023-06-14T04:55:25;14.90;99.90
22319;DHT22;11327;52.334;9.506;2023-06-14T04:58:46;15.00;99.90
22319;DHT22;11327;52.334;9.506;2023-06-14T05:02:07;15.10;99.90
22319;DHT22;11327;52.334;9.506;2023-06-14T05:05:29;15.20;99.90
22319;DHT22;11327;52.334;9.506;2023-06-14T05:08:49;15.30;99.90
22319;DHT22;11327;52.334;9.506;2023-06-14T05:12:11;15.50;99.90
22319;DHT22;11327;52.334;9.506;2023-06-14T05:15:32;15.60;99.90
22319;DHT22;11327;52.334;9.506;2023-06-14T05:18:53;15.60;99.90
22319;DHT22;11327;52.334;9.506;2023-06-14T05:22:13;15.80;99.90
22319;DHT22;11327;52.334;9.506;2023-06-14T05:25:34;15.90;99.90
22319;DHT22;11327;52.334;9.506;2023-06-14T05:28:57;16.00;99.90
22319;DHT22;11327;52.334;9.506;2023-06-14T05:32:18;16.10;99.90
22319;DHT22;11327;52.334;9.506;2023-06-14T05:35:39;16.10;99.90
22319;DHT22;11327;52.334;9.506;2023-06-14T05:38:59;16.30;99.90
22319;DHT22;11327;52.334;9.506;2023-06-14T05:42:21;16.30;99.90
22319;DHT22;11327;52.334;9.506;2023-06-14T05:45:42;16.40;99.90
22319;DHT22;11327;52.334;9.506;2023-06-14T05:49:03;16.60;99.90
22319;DHT22;11327;52.334;9.506;2023-06-14T05:52:23;16.70;99.90
22319;DHT22;11327;52.334;9.506;2023-06-14T05:55:44;16.80;99.90
22319;DHT22;11327;52.334;9.506;2023-06-14T05:59:05;16.90;99.90
22319;DHT22;11327;52.334;9.506;2023-06-14T06:02:26;17.00;99.90
22319;DHT22;11327;52.334;9.506;2023-06-14T06:05:46;17.10;99.90
22319;DHT22;11327;52.334;9.506;2023-06-14T06:09:07;17.00;99.90
22319;DHT22;11327;52.334;9.506;2023-06-14T06:12:28;17.20;99.90
22319;DHT22;11327;52.334;9.506;2023-06-14T06:15:48;17.30;99.90
22319;DHT22;11327;52.334;9.506;2023-06-14T06:19:09;17.40;99.90
22319;DHT22;11327;52.334;9.506;2023-06-14T06:22:30;17.50;99.90
22319;DHT22;11327;52.334;9.506;2023-06-14T06:25:51;17.60;99.90
22319;DHT22;11327;52.334;9.506;2023-06-14T06:29:12;17.60;99.90
22319;DHT22;11327;52.334;9.506;2023-06-14T06:32:33;17.80;99.90
22319;DHT22;11327;52.334;9.506;2023-06-14T06:35:53;17.90;99.90
22319;DHT22;11327;52.334;9.506;2023-06-14T06:39:14;17.80;99.90
22319;DHT22;11327;52.334;9.506;2023-06-14T06:42:36;18.10;99.90
22319;DHT22;11327;52.334;9.506;2023-06-14T06:45:57;18.10;99.90
22319;DHT22;11327;52.334;9.506;2023-06-14T06:49:17;18.20;99.90
22319;DHT22;11327;52.334;9.506;2023-06-14T06:52:38;18.30;99.90
22319;DHT22;11327;52.334;9.506;2023-06-14T06:55:59;18.50;99.90
22319;DHT22;11327;52.334;9.506;2023-06-14T06:59:19;18.60;99.90
22319;DHT22;11327;52.334;9.506;2023-06-14T07:02:41;18.60;99.90
22319;DHT22;11327;52.334;9.506;2023-06-14T07:06:02;18.60;99.90
22319;DHT22;11327;52.334;9.506;2023-06-14T07:09:22;18.80;99.90
22319;DHT22;11327;52.334;9.506;2023-06-14T07:12:45;18.90;99.90
22319;DHT22;11327;52.334;9.506;2023-06-14T07:16:05;19.00;99.90
22319;DHT22;11327;52.334;9.506;2023-06-14T07:19:26;19.00;99.90
22319;DHT22;11327;52.334;9.506;2023-06-14T07:22:47;19.10;99.90
22319;DHT22;11327;52.334;9.506;2023-06-14T07:26:08;19.20;99.90
22319;DHT22;11327;52.334;9.506;2023-06-14T07:29:28;19.20;99.90
22319;DHT22;11327;52.334;9.506;2023-06-14T07:32:49;19.50;99.90
22319;DHT22;11327;52.334;9.506;2023-06-14T07:36:10;19.60;99.90
22319;DHT22;11327;52.334;9.506;2023-06-14T07:39:31;19.70;99.90
22319;DHT22;11327;52.334;9.506;2023-06-14T07:42:52;19.70;99.90
22319;DHT22;11327;52.334;9.506;2023-06-14T07:46:15;19.90;99.90
22319;DHT22;11327;52.334;9.506;2023-06-14T07:49:35;19.90;99.90
22319;DHT22;11327;52.334;9.506;2023-06-14T07:52:56;20.10;99.90
22319;DHT22;11327;52.334;9.506;2023-06-14T07:56:19;20.10;99.90
22319;DHT22;11327;52.334;9.506;2023-06-14T07:59:39;20.20;99.90
22319;DHT22;11327;52.334;9.506;2023-06-14T08:03:00;20.30;99.90
22319;DHT22;11327;52.334;9.506;2023-06-14T08:06:21;20.50;99.90
22319;DHT22;11327;52.334;9.506;2023-06-14T08:09:42;20.50;99.90
22319;DHT22;11327;52.334;9.506;2023-06-14T08:13:02;20.50;99.90
22319;DHT22;11327;52.334;9.506;2023-06-14T08:16:23;20.60;99.90
22319;DHT22;11327;52.334;9.506;2023-06-14T08:19:44;20.80;99.90
22319;DHT22;11327;52.334;9.506;2023-06-14T08:23:05;20.80;99.90
22319;DHT22;11327;52.334;9.506;2023-06-14T08:26:25;20.80;99.90
22319;DHT22;11327;52.334;9.506;2023-06-14T08:29:49;20.90;99.90
22319;DHT22;11327;52.334;9.506;2023-06-14T08:33:10;21.10;99.90
22319;DHT22;11327;52.334;9.506;2023-06-14T08:36:31;20.90;99.90
22319;DHT22;11327;52.334;9.506;2023-06-14T08:39:51;20.90;99.90
22319;DHT22;11327;52.334;9.506;2023-06-14T08:43:12;21.00;99.90
22319;DHT22;11327;52.334;9.506;2023-06-14T08:46:33;21.30;99.90
22319;DHT22;11327;52.334;9.506;2023-06-14T08:49:55;21.40;99.90
22319;DHT22;11327;52.334;9.506;2023-06-14T08:53:37;21.60;99.90
22319;DHT22;11327;52.334;9.506;2023-06-14T08:57:00;21.60;99.90
22319;DHT22;11327;52.334;9.506;2023-06-14T09:00:22;21.70;99.90
22319;DHT22;11327;52.334;9.506;2023-06-14T09:03:43;21.90;99.90
22319;DHT22;11327;52.334;9.506;2023-06-14T09:07:05;22.00;99.90
22319;DHT22;11327;52.334;9.506;2023-06-14T09:10:27;22.10;99.90
22319;DHT22;11327;52.334;9.506;2023-06-14T09:13:49;22.20;99.90
22319;DHT22;11327;52.334;9.506;2023-06-14T09:17:13;22.40;99.90
22319;DHT22;11327;52.334;9.506;2023-06-14T09:20:34;22.50;99.90
22319;DHT22;11327;52.334;9.506;2023-06-14T09:23:55;22.40;99.90
22319;DHT22;11327;52.334;9.506;2023-06-14T09:27:16;22.50;99.90
22319;DHT22;11327;52.334;9.506;2023-06-14T09:30:39;22.70;99.90
22319;DHT22;11327;52.334;9.506;2023-06-14T09:34:02;22.70;99.90
22319;DHT22;11327;52.334;9.506;2023-06-14T09:37:27;22.80;99.90
22319;DHT22;11327;52.334;9.506;2023-06-14T09:40:49;22.90;99.90
22319;DHT22;11327;52.334;9.506;2023-06-14T09:44:10;22.80;99.90
22319;DHT22;11327;52.334;9.506;2023-06-14T09:47:34;22.90;99.90
22319;DHT22;11327;52.334;9.506;2023-06-14T09:50:55;23.00;99.90
22319;DHT22;11327;52.334;9.506;2023-06-14T09:54:20;23.30;99.90
22319;DHT22;11327;52.334;9.506;2023-06-14T09:57:43;23.50;99.90
22319;DHT22;11327;52.334;9.506;2023-06-14T10:01:06;23.70;99.90
22319;DHT22;11327;52.334;9.506;2023-06-14T10:04:30;24.00;99.90
22319;DHT22;11327;52.334;9.506;2023-06-14T10:07:56;24.00;99.90
22319;DHT22;11327;52.334;9.506;2023-06-14T10:11:17;23.90;99.90
22319;DHT22;11327;52.334;9.506;2023-06-14T10:14:38;24.00;99.90
22319;DHT22;11327;52.334;9.506;2023-06-14T10:18:10;24.10;98.90
22319;DHT22;11327;52.334;9.506;2023-06-14T10:21:58;24.10;99.90
22319;DHT22;11327;52.334;9.506;2023-06-14T10:25:30;24.20;99.60
22319;DHT22;11327;52.334;9.506;2023-06-14T10:29:07;24.30;99.70
22319;DHT22;11327;52.334;9.506;2023-06-14T10:32:25;24.50;98.90
22319;DHT22;11327;52.334;9.506;2023-06-14T10:35:48;24.50;98.80
22319;DHT22;11327;52.334;9.506;2023-06-14T10:39:17;24.50;99.80
22319;DHT22;11327;52.334;9.506;2023-06-14T10:42:38;24.60;99.20
22319;DHT22;11327;52.334;9.506;2023-06-14T10:46:19;24.60;99.00
22319;DHT22;11327;52.334;9.506;2023-06-14T10:49:44;24.80;97.90
22319;DHT22;11327;52.334;9.506;2023-06-14T10:53:26;25.00;97.90
22319;DHT22;11327;52.334;9.506;2023-06-14T10:56:34;25.00;97.10
22319;DHT22;11327;52.334;9.506;2023-06-14T10:59:55;24.90;96.70
22319;DHT22;11327;52.334;9.506;2023-06-14T11:06:54;24.70;96.60
22319;DHT22;11327;52.334;9.506;2023-06-14T11:10:36;24.60;96.00
22319;DHT22;11327;52.334;9.506;2023-06-14T11:13:59;24.60;97.50
22319;DHT22;11327;52.334;9.506;2023-06-14T11:17:20;24.40;97.90
22319;DHT22;11327;52.334;9.506;2023-06-14T11:20:41;24.30;98.00
22319;DHT22;11327;52.334;9.506;2023-06-14T11:24:04;24.20;98.40
22319;DHT22;11327;52.334;9.506;2023-06-14T11:27:27;24.10;97.80
22319;DHT22;11327;52.334;9.506;2023-06-14T11:30:48;23.90;98.00
22319;DHT22;11327;52.334;9.506;2023-06-14T11:34:09;23.90;98.20
22319;DHT22;11327;52.334;9.506;2023-06-14T11:37:31;23.80;98.70
22319;DHT22;11327;52.334;9.506;2023-06-14T11:40:59;24.00;99.40
22319;DHT22;11327;52.334;9.506;2023-06-14T11:44:21;24.30;99.90
22319;DHT22;11327;52.334;9.506;2023-06-14T11:47:41;24.50;99.90
22319;DHT22;11327;52.334;9.506;2023-06-14T11:51:02;24.40;98.90
22319;DHT22;11327;52.334;9.506;2023-06-14T11:54:23;24.40;98.70
22319;DHT22;11327;52.334;9.506;2023-06-14T11:57:46;24.30;99.20
22319;DHT22;11327;52.334;9.506;2023-06-14T12:01:07;24.20;99.80
22319;DHT22;11327;52.334;9.506;2023-06-14T12:04:27;24.30;99.90
22319;DHT22;11327;52.334;9.506;2023-06-14T12:07:49;24.50;99.00
22319;DHT22;11327;52.334;9.506;2023-06-14T12:11:12;24.50;99.90
22319;DHT22;11327;52.334;9.506;2023-06-14T12:14:34;24.60;97.80
22319;DHT22;11327;52.334;9.506;2023-06-14T12:17:54;24.80;99.30
22319;DHT22;11327;52.334;9.506;2023-06-14T12:21:15;25.20;97.70
22319;DHT22;11327;52.334;9.506;2023-06-14T12:24:37;25.10;96.10
22319;DHT22;11327;52.334;9.506;2023-06-14T12:28:05;25.10;96.00
22319;DHT22;11327;52.334;9.506;2023-06-14T12:31:26;25.00;96.70
22319;DHT22;11327;52.334;9.506;2023-06-14T12:34:47;25.00;97.30
22319;DHT22;11327;52.334;9.506;2023-06-14T12:38:10;25.00;97.40
22319;DHT22;11327;52.334;9.506;2023-06-14T12:41:31;24.90;97.70
22319;DHT22;11327;52.334;9.506;2023-06-14T12:44:51;25.00;98.60
22319;DHT22;11327;52.334;9.506;2023-06-14T12:48:12;25.00;97.00
22319;DHT22;11327;52.334;9.506;2023-06-14T12:51:33;24.90;97.40
22319;DHT22;11327;52.334;9.506;2023-06-14T12:54:54;25.10;99.10
22319;DHT22;11327;52.334;9.506;2023-06-14T12:58:14;25.40;99.00
22319;DHT22;11327;52.334;9.506;2023-06-14T13:01:38;25.70;97.60
22319;DHT22;11327;52.334;9.506;2023-06-14T13:05:00;25.90;97.20
22319;DHT22;11327;52.334;9.506;2023-06-14T13:08:21;26.10;95.60
22319;DHT22;11327;52.334;9.506;2023-06-14T13:11:42;26.10;96.70
22319;DHT22;11327;52.334;9.506;2023-06-14T13:15:06;26.30;96.40
22319;DHT22;11327;52.334;9.506;2023-06-14T13:18:28;26.30;95.60
22319;DHT22;11327;52.334;9.506;2023-06-14T13:21:48;26.40;95.30
22319;DHT22;11327;52.334;9.506;2023-06-14T13:25:09;26.60;95.30
22319;DHT22;11327;52.334;9.506;2023-06-14T13:28:30;26.50;94.40
22319;DHT22;11327;52.334;9.506;2023-06-14T13:31:52;26.50;95.50
22319;DHT22;11327;52.334;9.506;2023-06-14T13:35:13;26.60;94.80
22319;DHT22;11327;52.334;9.506;2023-06-14T13:38:34;26.50;93.70
22319;DHT22;11327;52.334;9.506;2023-06-14T13:41:55;26.50;94.40
22319;DHT22;11327;52.334;9.506;2023-06-14T13:45:16;26.40;92.00
22319;DHT22;11327;52.334;9.506;2023-06-14T13:48:36;26.30;93.60
22319;DHT22;11327;52.334;9.506;2023-06-14T13:51:57;26.50;94.50
22319;DHT22;11327;52.334;9.506;2023-06-14T13:55:18;26.60;94.00
22319;DHT22;11327;52.334;9.506;2023-06-14T13:58:38;26.50;94.30
22319;DHT22;11327;52.334;9.506;2023-06-14T14:01:59;26.40;94.40
22319;DHT22;11327;52.334;9.506;2023-06-14T14:05:20;26.50;94.10
22319;DHT22;11327;52.334;9.506;2023-06-14T14:08:41;26.50;92.80
22319;DHT22;11327;52.334;9.506;2023-06-14T14:12:03;26.30;92.20
22319;DHT22;11327;52.334;9.506;2023-06-14T14:15:24;26.10;93.40
22319;DHT22;11327;52.334;9.506;2023-06-14T14:18:46;25.80;93.60
22319;DHT22;11327;52.334;9.506;2023-06-14T14:22:06;25.60;94.40
22319;DHT22;11327;52.334;9.506;2023-06-14T14:25:27;25.60;93.90
22319;DHT22;11327;52.334;9.506;2023-06-14T14:28:48;25.80;94.40
22319;DHT22;11327;52.334;9.506;2023-06-14T14:32:09;25.80;94.60
22319;DHT22;11327;52.334;9.506;2023-06-14T14:35:32;25.80;94.60
22319;DHT22;11327;52.334;9.506;2023-06-14T14:38:53;25.50;94.50
22319;DHT22;11327;52.334;9.506;2023-06-14T14:42:13;25.30;94.40
22319;DHT22;11327;52.334;9.506;2023-06-14T14:45:34;25.30;95.40
22319;DHT22;11327;52.334;9.506;2023-06-14T14:48:55;25.00;95.40
22319;DHT22;11327;52.334;9.506;2023-06-14T14:52:15;24.90;95.10
22319;DHT22;11327;52.334;9.506;2023-06-14T14:55:36;25.00;94.80
22319;DHT22;11327;52.334;9.506;2023-06-14T14:58:57;25.20;95.00
22319;DHT22;11327;52.334;9.506;2023-06-14T15:02:19;25.30;94.70
22319;DHT22;11327;52.334;9.506;2023-06-14T15:05:40;25.50;94.80
22319;DHT22;11327;52.334;9.506;2023-06-14T15:09:00;25.70;94.20
22319;DHT22;11327;52.334;9.506;2023-06-14T15:12:21;25.90;93.60
22319;DHT22;11327;52.334;9.506;2023-06-14T15:15:43;25.90;94.00
22319;DHT22;11327;52.334;9.506;2023-06-14T15:19:04;26.00;93.00
22319;DHT22;11327;52.334;9.506;2023-06-14T15:22:25;26.20;94.50
22319;DHT22;11327;52.334;9.506;2023-06-14T15:25:46;26.30;93.40
22319;DHT22;11327;52.334;9.506;2023-06-14T15:29:12;26.30;91.80
22319;DHT22;11327;52.334;9.506;2023-06-14T15:32:32;26.30;92.10
22319;DHT22;11327;52.334;9.506;2023-06-14T15:35:53;26.00;92.80
22319;DHT22;11327;52.334;9.506;2023-06-14T15:39:14;25.80;93.30
22319;DHT22;11327;52.334;9.506;2023-06-14T15:42:35;25.50;93.40
22319;DHT22;11327;52.334;9.506;2023-06-14T15:45:55;25.30;93.30
22319;DHT22;11327;52.334;9.506;2023-06-14T15:49:16;25.00;93.60
22319;DHT22;11327;52.334;9.506;2023-06-14T15:52:37;24.90;94.70
22319;DHT22;11327;52.334;9.506;2023-06-14T15:55:58;24.90;94.70
22319;DHT22;11327;52.334;9.506;2023-06-14T15:59:18;24.80;94.90
22319;DHT22;11327;52.334;9.506;2023-06-14T16:02:39;24.70;94.60
22319;DHT22;11327;52.334;9.506;2023-06-14T16:06:00;25.00;95.30
22319;DHT22;11327;52.334;9.506;2023-06-14T16:09:21;25.20;94.80
22319;DHT22;11327;52.334;9.506;2023-06-14T16:12:42;25.50;95.20
22319;DHT22;11327;52.334;9.506;2023-06-14T16:16:03;25.60;95.10
22319;DHT22;11327;52.334;9.506;2023-06-14T16:19:23;25.80;95.10
22319;DHT22;11327;52.334;9.506;2023-06-14T16:22:44;25.70;94.70
22319;DHT22;11327;52.334;9.506;2023-06-14T16:26:05;25.40;94.80
22319;DHT22;11327;52.334;9.506;2023-06-14T16:29:26;25.10;95.30
22319;DHT22;11327;52.334;9.506;2023-06-14T16:32:47;24.80;96.20
22319;DHT22;11327;52.334;9.506;2023-06-14T16:36:07;24.70;96.10
22319;DHT22;11327;52.334;9.506;2023-06-14T16:39:28;24.50;96.40
22319;DHT22;11327;52.334;9.506;2023-06-14T16:42:49;24.30;96.70
22319;DHT22;11327;52.334;9.506;2023-06-14T16:46:10;24.20;96.50
22319;DHT22;11327;52.334;9.506;2023-06-14T16:49:32;24.20;97.40
22319;DHT22;11327;52.334;9.506;2023-06-14T16:52:53;24.10;97.50
22319;DHT22;11327;52.334;9.506;2023-06-14T16:56:13;24.00;97.60
22319;DHT22;11327;52.334;9.506;2023-06-14T16:59:34;23.90;98.20
22319;DHT22;11327;52.334;9.506;2023-06-14T17:02:55;23.80;98.50
22319;DHT22;11327;52.334;9.506;2023-06-14T17:06:16;23.70;98.90
22319;DHT22;11327;52.334;9.506;2023-06-14T17:09:37;23.70;99.20
22319;DHT22;11327;52.334;9.506;2023-06-14T17:12:58;23.60;99.30
22319;DHT22;11327;52.334;9.506;2023-06-14T17:16:19;23.60;99.50
22319;DHT22;11327;52.334;9.506;2023-06-14T17:19:39;23.50;99.70
22319;DHT22;11327;52.334;9.506;2023-06-14T17:23:00;23.50;99.90
22319;DHT22;11327;52.334;9.506;2023-06-14T17:26:22;23.40;99.90
22319;DHT22;11327;52.334;9.506;2023-06-14T17:29:43;23.30;99.90
22319;DHT22;11327;52.334;9.506;2023-06-14T17:33:08;23.30;99.90
22319;DHT22;11327;52.334;9.506;2023-06-14T17:36:29;23.30;99.90
22319;DHT22;11327;52.334;9.506;2023-06-14T17:39:50;23.20;99.90
22319;DHT22;11327;52.334;9.506;2023-06-14T17:43:11;23.20;99.90
22319;DHT22;11327;52.334;9.506;2023-06-14T17:46:32;23.20;99.90
22319;DHT22;11327;52.334;9.506;2023-06-14T17:49:52;23.20;99.90
22319;DHT22;11327;52.334;9.506;2023-06-14T17:53:14;23.20;99.90
22319;DHT22;11327;52.334;9.506;2023-06-14T17:56:34;23.30;99.90
22319;DHT22;11327;52.334;9.506;2023-06-14T17:59:55;23.30;99.90
22319;DHT22;11327;52.334;9.506;2023-06-14T18:03:17;23.20;99.90
22319;DHT22;11327;52.334;9.506;2023-06-14T18:06:38;23.10;99.90
22319;DHT22;11327;52.334;9.506;2023-06-14T18:09:59;23.00;99.90
22319;DHT22;11327;52.334;9.506;2023-06-14T18:13:20;22.90;99.90
22319;DHT22;11327;52.334;9.506;2023-06-14T18:16:41;22.90;99.90
22319;DHT22;11327;52.334;9.506;2023-06-14T18:20:02;22.90;99.90
22319;DHT22;11327;52.334;9.506;2023-06-14T18:23:24;22.80;99.90
22319;DHT22;11327;52.334;9.506;2023-06-14T18:26:44;22.70;99.90
22319;DHT22;11327;52.334;9.506;2023-06-14T18:30:07;22.70;99.90
22319;DHT22;11327;52.334;9.506;2023-06-14T18:33:28;22.60;99.90
22319;DHT22;11327;52.334;9.506;2023-06-14T18:36:49;22.70;99.90
22319;DHT22;11327;52.334;9.506;2023-06-14T18:40:10;22.50;99.90
22319;DHT22;11327;52.334;9.506;2023-06-14T18:43:31;22.50;99.90
22319;DHT22;11327;52.334;9.506;2023-06-14T18:46:52;22.50;99.90
22319;DHT22;11327;52.334;9.506;2023-06-14T18:50:13;22.40;99.90
22319;DHT22;11327;52.334;9.506;2023-06-14T18:53:34;22.30;99.90
22319;DHT22;11327;52.334;9.506;2023-06-14T18:56:55;22.30;99.90
22319;DHT22;11327;52.334;9.506;2023-06-14T19:00:16;22.10;99.90
22319;DHT22;11327;52.334;9.506;2023-06-14T19:03:37;22.00;99.90
22319;DHT22;11327;52.334;9.506;2023-06-14T19:06:58;21.90;99.90
22319;DHT22;11327;52.334;9.506;2023-06-14T19:10:18;21.80;99.90
22319;DHT22;11327;52.334;9.506;2023-06-14T19:13:39;21.70;99.90
22319;DHT22;11327;52.334;9.506;2023-06-14T19:17:01;21.60;99.90
22319;DHT22;11327;52.334;9.506;2023-06-14T19:20:24;21.50;99.90
22319;DHT22;11327;52.334;9.506;2023-06-14T19:23:48;21.40;99.90
22319;DHT22;11327;52.334;9.506;2023-06-14T19:27:09;21.40;99.90
22319;DHT22;11327;52.334;9.506;2023-06-14T19:30:32;21.30;99.90
22319;DHT22;11327;52.334;9.506;2023-06-14T19:33:52;21.30;99.90
22319;DHT22;11327;52.334;9.506;2023-06-14T19:37:20;21.10;99.90
22319;DHT22;11327;52.334;9.506;2023-06-14T19:40:42;21.00;99.90
22319;DHT22;11327;52.334;9.506;2023-06-14T19:44:02;20.90;99.90
22319;DHT22;11327;52.334;9.506;2023-06-14T19:47:24;20.80;99.90
22319;DHT22;11327;52.334;9.506;2023-06-14T19:50:46;20.70;99.90
22319;DHT22;11327;52.334;9.506;2023-06-14T19:54:06;20.60;99.90
22319;DHT22;11327;52.334;9.506;2023-06-14T19:57:28;20.60;99.90
22319;DHT22;11327;52.334;9.506;2023-06-14T20:00:48;20.50;99.90
22319;DHT22;11327;52.334;9.506;2023-06-14T20:04:09;20.30;99.90
22319;DHT22;11327;52.334;9.506;2023-06-14T20:07:30;20.30;99.90
22319;DHT22;11327;52.334;9.506;2023-06-14T20:10:52;20.30;99.90
22319;DHT22;11327;52.334;9.506;2023-06-14T20:14:13;20.10;99.90
22319;DHT22;11327;52.334;9.506;2023-06-14T20:17:33;20.00;99.90
22319;DHT22;11327;52.334;9.506;2023-06-14T20:20:54;19.90;99.90
22319;DHT22;11327;52.334;9.506;2023-06-14T20:24:15;19.90;99.90
22319;DHT22;11327;52.334;9.506;2023-06-14T20:27:36;20.00;99.90
22319;DHT22;11327;52.334;9.506;2023-06-14T20:30:57;19.70;99.90
22319;DHT22;11327;52.334;9.506;2023-06-14T20:34:18;19.70;99.90
22319;DHT22;11327;52.334;9.506;2023-06-14T20:37:39;19.70;99.90
22319;DHT22;11327;52.334;9.506;2023-06-14T20:40:59;19.70;99.90
22319;DHT22;11327;52.334;9.506;2023-06-14T20:44:20;19.60;99.90
22319;DHT22;11327;52.334;9.506;2023-06-14T20:47:42;19.60;99.90
22319;DHT22;11327;52.334;9.506;2023-06-14T20:51:03;19.50;99.90
22319;DHT22;11327;52.334;9.506;2023-06-14T20:54:24;19.40;99.90
22319;DHT22;11327;52.334;9.506;2023-06-14T20:57:45;19.50;99.90
22319;DHT22;11327;52.334;9.506;2023-06-14T21:01:05;19.30;99.90
22319;DHT22;11327;52.334;9.506;2023-06-14T21:04:26;19.30;99.90
22319;DHT22;11327;52.334;9.506;2023-06-14T21:07:47;19.20;99.90
22319;DHT22;11327;52.334;9.506;2023-06-14T21:11:08;19.10;99.90
22319;DHT22;11327;52.334;9.506;2023-06-14T21:14:29;19.10;99.90
22319;DHT22;11327;52.334;9.506;2023-06-14T21:17:54;19.10;99.90
22319;DHT22;11327;52.334;9.506;2023-06-14T21:21:15;19.00;99.90